createdAt,value
2023-02-02T00:00:36.587Z,9.18
2023-02-02T00:01:36.596Z,9.16
2023-02-02T00:02:36.621Z,9.22
2023-02-02T00:03:36.606Z,9.09
2023-02-02T00:04:36.558Z,9.08
2023-02-02T00:05:36.552Z,9.08
2023-02-02T00:06:36.543Z,9.04
2023-02-02T00:07:36.541Z,9.11
2023-02-02T00:08:36.530Z,9.04
2023-02-02T00:09:36.511Z,9.11
2023-02-02T00:10:36.503Z,9.09
2023-02-02T00:11:36.516Z,9.06
2023-02-02T00:12:36.485Z,9.11
2023-02-02T00:13:36.473Z,9.14
2023-02-02T00:14:36.477Z,9.11
2023-02-02T00:15:36.460Z,9.14
2023-02-02T00:16:36.572Z,9.03
2023-02-02T00:17:36.448Z,9.08
2023-02-02T00:18:36.433Z,9.03
2023-02-02T00:19:36.425Z,9.11
2023-02-02T00:20:36.423Z,9.16
2023-02-02T00:21:36.403Z,9.06
2023-02-02T00:22:36.396Z,9.16
2023-02-02T00:23:36.397Z,9.18
2023-02-02T00:24:36.384Z,9.06
2023-02-02T00:25:36.372Z,9.16
2023-02-02T00:26:36.446Z,9.11
2023-02-02T00:27:36.353Z,9.09
2023-02-02T00:28:36.354Z,9.15
2023-02-02T00:29:36.343Z,9.03
2023-02-02T00:30:36.382Z,9.16
2023-02-02T00:31:36.392Z,9.11
2023-02-02T00:32:36.321Z,9.14
2023-02-02T00:33:36.320Z,9.12
2023-02-02T00:34:36.298Z,9.12
2023-02-02T00:35:36.289Z,9.18
2023-02-02T00:36:36.278Z,9.12
2023-02-02T00:37:36.272Z,9.04
2023-02-02T00:38:36.258Z,9.14
2023-02-02T00:39:36.270Z,9.11
2023-02-02T00:40:36.240Z,9.08
2023-02-02T00:41:36.233Z,9.04
2023-02-02T00:42:36.231Z,9.12
2023-02-02T00:43:36.225Z,9.06
2023-02-02T00:44:36.209Z,9.18
2023-02-02T00:45:36.212Z,9.12
2023-02-02T00:46:36.219Z,9.11
2023-02-02T00:47:36.183Z,9.04
2023-02-02T00:48:36.189Z,9.06
2023-02-02T00:49:36.198Z,9.16
2023-02-02T00:50:36.160Z,9.11
2023-02-02T00:51:36.179Z,9.15
2023-02-02T00:52:36.154Z,9.16
2023-02-02T00:53:36.163Z,9.22
2023-02-02T00:54:36.153Z,9.14
2023-02-02T00:55:36.116Z,9.15
2023-02-02T00:56:36.126Z,9.11
2023-02-02T00:57:36.111Z,9.03
2023-02-02T00:58:36.116Z,9.06
2023-02-02T00:59:36.084Z,9.12
2023-02-02T01:00:36.091Z,9.08
2023-02-02T01:01:36.076Z,9.09
2023-02-02T01:02:36.064Z,9.08
2023-02-02T01:03:36.071Z,9.04
2023-02-02T01:04:36.051Z,9.08
2023-02-02T01:05:36.059Z,9.11
2023-02-02T01:06:36.031Z,9.09
2023-02-02T01:07:36.040Z,9.14
2023-02-02T01:08:36.006Z,9.11
2023-02-02T01:09:36.001Z,9.06
2023-02-02T01:10:36.024Z,9.18
2023-02-02T01:11:36.002Z,9.01
2023-02-02T01:12:35.989Z,9.12
2023-02-02T01:13:35.957Z,9.18
2023-02-02T01:14:35.947Z,9.06
2023-02-02T01:15:35.937Z,9.14
2023-02-02T01:16:36.112Z,9.14
2023-02-02T01:17:35.930Z,9.11
2023-02-02T01:18:35.912Z,9.03
2023-02-02T01:19:35.938Z,9.06
2023-02-02T01:20:35.903Z,9.12
2023-02-02T01:21:35.897Z,9.14
2023-02-02T01:22:35.893Z,9.11
2023-02-02T01:23:35.877Z,9.12
2023-02-02T01:24:35.865Z,9.08
2023-02-02T01:25:35.864Z,9.08
2023-02-02T01:26:35.886Z,9.11
2023-02-02T01:27:35.841Z,9.08
2023-02-02T01:28:35.826Z,9.08
2023-02-02T01:29:35.814Z,9.11
2023-02-02T01:30:35.831Z,9.15
2023-02-02T01:31:35.859Z,9.11
2023-02-02T01:32:35.806Z,9.11
2023-02-02T01:33:35.794Z,9.08
2023-02-02T01:34:35.780Z,9.19
2023-02-02T01:35:35.778Z,9.15
2023-02-02T01:36:35.774Z,9.14
2023-02-02T01:37:35.757Z,9.09
2023-02-02T01:38:35.758Z,9.08
2023-02-02T01:39:35.735Z,9.18
2023-02-02T01:40:35.754Z,9.14
2023-02-02T01:41:35.722Z,9.11
2023-02-02T01:42:35.723Z,9.09
2023-02-02T01:43:35.703Z,9.15
2023-02-02T01:44:35.696Z,9.09
2023-02-02T01:45:35.738Z,9.24
2023-02-02T01:46:35.695Z,9.06
2023-02-02T01:47:35.665Z,9.22
2023-02-02T01:48:35.654Z,9.16
2023-02-02T01:49:35.670Z,9.08
2023-02-02T01:50:35.638Z,9.09
2023-02-02T01:51:35.641Z,8.99
2023-02-02T01:52:35.645Z,8.92
2023-02-02T01:53:35.615Z,8.99
2023-02-02T01:54:35.606Z,9.03
2023-02-02T01:55:35.600Z,8.98
2023-02-02T01:56:35.592Z,8.95
2023-02-02T01:57:35.578Z,8.96
2023-02-02T01:58:35.571Z,8.98
2023-02-02T01:59:35.567Z,8.98
2023-02-02T02:00:35.561Z,8.88
2023-02-02T02:01:35.612Z,8.88
2023-02-02T02:02:35.631Z,8.85
2023-02-02T02:03:35.534Z,8.86
2023-02-02T02:04:35.528Z,8.83
2023-02-02T02:05:35.514Z,8.86
2023-02-02T02:06:35.498Z,8.78
2023-02-02T02:07:35.506Z,8.81
2023-02-02T02:08:35.489Z,8.77
2023-02-02T02:09:35.482Z,8.80
2023-02-02T02:10:35.468Z,8.86
2023-02-02T02:11:35.463Z,8.83
2023-02-02T02:12:35.453Z,8.86
2023-02-02T02:13:35.447Z,8.86
2023-02-02T02:14:35.441Z,8.80
2023-02-02T02:15:35.428Z,8.80
2023-02-02T02:16:35.427Z,8.83
2023-02-02T02:17:35.419Z,8.85
2023-02-02T02:18:35.404Z,8.83
2023-02-02T02:19:35.393Z,8.83
2023-02-02T02:20:35.387Z,8.86
2023-02-02T02:21:35.386Z,8.85
2023-02-02T02:22:35.373Z,8.83
2023-02-02T02:23:35.356Z,8.78
2023-02-02T02:24:35.344Z,8.78
2023-02-02T02:25:35.337Z,8.78
2023-02-02T02:26:35.381Z,8.78
2023-02-02T02:27:35.333Z,8.77
2023-02-02T02:28:35.317Z,8.81
2023-02-02T02:29:35.309Z,8.83
2023-02-02T02:30:35.389Z,8.85
2023-02-02T02:31:35.428Z,8.81
2023-02-02T02:32:35.289Z,8.83
2023-02-02T02:33:35.271Z,8.75
2023-02-02T02:34:35.264Z,8.81
2023-02-02T02:35:35.252Z,8.81
2023-02-02T02:36:35.246Z,8.80
2023-02-02T02:37:35.235Z,8.85
2023-02-02T02:38:35.239Z,8.78
2023-02-02T02:39:35.215Z,8.80
2023-02-02T02:40:35.215Z,8.83
2023-02-02T02:41:35.200Z,8.83
2023-02-02T02:42:35.190Z,8.88
2023-02-02T02:43:35.187Z,8.81
2023-02-02T02:44:35.177Z,8.80
2023-02-02T02:45:35.167Z,8.80
2023-02-02T02:46:35.156Z,8.85
2023-02-02T02:47:35.154Z,8.80
2023-02-02T02:48:35.141Z,8.80
2023-02-02T02:49:35.143Z,8.78
2023-02-02T02:50:35.129Z,8.89
2023-02-02T02:51:35.123Z,8.81
2023-02-02T02:52:35.104Z,8.81
2023-02-02T02:53:35.095Z,8.78
2023-02-02T02:54:35.092Z,8.81
2023-02-02T02:55:35.083Z,8.85
2023-02-02T02:56:35.077Z,8.86
2023-02-02T02:57:35.061Z,8.83
2023-02-02T02:58:35.057Z,8.81
2023-02-02T02:59:35.047Z,8.83
2023-02-02T03:00:35.037Z,8.86
2023-02-02T03:01:35.061Z,8.88
2023-02-02T03:02:35.062Z,8.86
2023-02-02T03:03:35.011Z,8.92
2023-02-02T03:04:35.001Z,8.80
2023-02-02T03:05:35.014Z,8.80
2023-02-02T03:06:34.981Z,8.83
2023-02-02T03:07:34.976Z,8.89
2023-02-02T03:08:34.973Z,8.75
2023-02-02T03:09:34.973Z,8.88
2023-02-02T03:10:34.942Z,8.86
2023-02-02T03:11:34.947Z,8.99
2023-02-02T03:12:34.932Z,8.93
2023-02-02T03:13:34.920Z,8.95
2023-02-02T03:14:34.929Z,8.99
2023-02-02T03:15:34.958Z,8.96
2023-02-02T03:16:34.908Z,8.96
2023-02-02T03:17:34.883Z,8.96
2023-02-02T03:18:34.889Z,9.01
2023-02-02T03:19:34.870Z,8.95
2023-02-02T03:20:34.853Z,8.98
2023-02-02T03:21:34.859Z,8.98
2023-02-02T03:22:34.849Z,9.01
2023-02-02T03:23:34.838Z,8.93
2023-02-02T03:24:34.833Z,8.95
2023-02-02T03:25:34.817Z,8.93
2023-02-02T03:26:34.828Z,8.92
2023-02-02T03:27:34.805Z,8.95
2023-02-02T03:28:34.792Z,8.95
2023-02-02T03:29:34.829Z,9.04
2023-02-02T03:30:34.844Z,8.96
2023-02-02T03:31:34.804Z,8.95
2023-02-02T03:32:34.764Z,9.03
2023-02-02T03:33:34.748Z,9.03
2023-02-02T03:34:34.743Z,9.04
2023-02-02T03:35:34.741Z,9.01
2023-02-02T03:36:34.726Z,8.98
2023-02-02T03:37:34.718Z,9.04
2023-02-02T03:38:34.704Z,8.93
2023-02-02T03:39:34.703Z,8.95
2023-02-02T03:40:34.697Z,8.98
2023-02-02T03:41:34.684Z,8.96
2023-02-02T03:42:34.672Z,8.98
2023-02-02T03:43:34.664Z,8.95
2023-02-02T03:44:34.654Z,8.98
2023-02-02T03:45:34.650Z,8.98
2023-02-02T03:46:34.695Z,8.99
2023-02-02T03:47:34.643Z,8.93
2023-02-02T03:48:34.617Z,9.01
2023-02-02T03:49:34.615Z,9.01
2023-02-02T03:50:34.606Z,8.98
2023-02-02T03:51:34.602Z,8.95
2023-02-02T03:52:34.586Z,8.99
2023-02-02T03:53:34.586Z,9.03
2023-02-02T03:54:34.571Z,9.03
2023-02-02T03:55:34.557Z,8.96
2023-02-02T03:56:34.567Z,8.96
2023-02-02T03:57:34.544Z,8.98
2023-02-02T03:58:34.532Z,8.96
2023-02-02T03:59:34.527Z,9.03
2023-02-02T04:00:34.532Z,8.92
2023-02-02T04:01:34.538Z,8.98
2023-02-02T04:02:34.560Z,8.98
2023-02-02T04:03:34.491Z,8.98
2023-02-02T04:04:34.483Z,9.01
2023-02-02T04:05:34.472Z,8.93
2023-02-02T04:06:34.467Z,8.95
2023-02-02T04:07:34.462Z,8.90
2023-02-02T04:08:34.453Z,8.96
2023-02-02T04:09:34.437Z,8.96
2023-02-02T04:10:34.432Z,8.99
2023-02-02T04:11:34.429Z,8.89
2023-02-02T04:12:34.413Z,8.92
2023-02-02T04:13:34.400Z,8.88
2023-02-02T04:14:34.398Z,8.88
2023-02-02T04:15:34.389Z,8.90
2023-02-02T04:16:34.419Z,8.89
2023-02-02T04:17:34.371Z,8.81
2023-02-02T04:18:34.365Z,8.80
2023-02-02T04:19:34.360Z,8.88
2023-02-02T04:20:34.360Z,8.88
2023-02-02T04:21:34.333Z,8.95
2023-02-02T04:22:34.326Z,8.85
2023-02-02T04:23:34.317Z,8.86
2023-02-02T04:24:35.600Z,8.80
2023-02-02T04:25:34.307Z,8.93
2023-02-02T04:26:34.330Z,8.80
2023-02-02T04:27:34.402Z,8.75
2023-02-02T04:28:34.293Z,8.81
2023-02-02T04:29:34.268Z,8.86
2023-02-02T04:30:34.312Z,8.89
2023-02-02T04:31:34.329Z,8.86
2023-02-02T04:32:34.246Z,8.81
2023-02-02T04:33:34.240Z,8.90
2023-02-02T04:34:34.237Z,8.81
2023-02-02T04:35:34.241Z,8.98
2023-02-02T04:36:34.207Z,8.92
2023-02-02T04:37:34.197Z,8.83
2023-02-02T04:38:34.187Z,8.85
2023-02-02T04:39:34.181Z,8.90
2023-02-02T04:40:34.190Z,8.85
2023-02-02T04:41:34.163Z,8.89
2023-02-02T04:42:34.161Z,8.90
2023-02-02T04:43:34.147Z,8.95
2023-02-02T04:44:34.139Z,8.81
2023-02-02T04:45:34.168Z,8.88
2023-02-02T04:46:34.119Z,8.81
2023-02-02T04:47:34.108Z,8.80
2023-02-02T04:48:34.105Z,8.83
2023-02-02T04:49:34.096Z,8.95
2023-02-02T04:50:34.096Z,8.77
2023-02-02T04:51:34.082Z,8.96
2023-02-02T04:52:34.062Z,8.96
2023-02-02T04:53:34.068Z,8.92
2023-02-02T04:54:34.058Z,8.89
2023-02-02T04:55:34.077Z,8.92
2023-02-02T04:56:34.028Z,8.93
2023-02-02T04:57:34.020Z,8.90
2023-02-02T04:58:34.027Z,8.88
2023-02-02T04:59:34.000Z,8.77
2023-02-02T05:00:34.018Z,8.80
2023-02-02T05:01:33.994Z,8.93
2023-02-02T05:02:33.981Z,8.95
2023-02-02T05:03:33.979Z,8.89
2023-02-02T05:04:33.999Z,8.78
2023-02-02T05:05:33.967Z,8.92
2023-02-02T05:06:33.943Z,8.85
2023-02-02T05:07:33.943Z,8.80
2023-02-02T05:08:33.928Z,8.85
2023-02-02T05:09:33.915Z,8.80
2023-02-02T05:10:33.911Z,8.89
2023-02-02T05:11:33.927Z,8.86
2023-02-02T05:12:33.898Z,8.85
2023-02-02T05:13:33.883Z,8.85
2023-02-02T05:14:33.878Z,8.81
2023-02-02T05:15:33.867Z,8.81
2023-02-02T05:16:33.908Z,8.85
2023-02-02T05:17:33.857Z,8.83
2023-02-02T05:18:33.843Z,8.86
2023-02-02T05:19:33.867Z,8.88
2023-02-02T05:20:33.828Z,8.81
2023-02-02T05:21:33.820Z,8.86
2023-02-02T05:22:33.811Z,8.86
2023-02-02T05:23:33.805Z,8.85
2023-02-02T05:24:33.789Z,8.85
2023-02-02T05:25:33.802Z,8.83
2023-02-02T05:26:33.803Z,8.81
2023-02-02T05:27:33.773Z,8.80
2023-02-02T05:28:33.757Z,8.81
2023-02-02T05:29:33.746Z,8.86
2023-02-02T05:30:33.913Z,8.80
2023-02-02T05:31:33.752Z,8.85
2023-02-02T05:32:33.723Z,8.88
2023-02-02T05:33:33.717Z,8.88
2023-02-02T05:34:33.705Z,8.83
2023-02-02T05:35:33.698Z,8.83
2023-02-02T05:36:33.716Z,8.81
2023-02-02T05:37:33.736Z,8.83
2023-02-02T05:38:33.676Z,8.83
2023-02-02T05:39:33.672Z,8.81
2023-02-02T05:40:33.652Z,8.77
2023-02-02T05:41:33.653Z,8.85
2023-02-02T05:42:33.633Z,8.80
2023-02-02T05:43:33.626Z,8.85
2023-02-02T05:44:33.618Z,8.86
2023-02-02T05:45:33.720Z,8.89
2023-02-02T05:46:33.600Z,8.85
2023-02-02T05:47:33.592Z,8.83
2023-02-02T05:48:33.587Z,8.81
2023-02-02T05:49:33.578Z,8.88
2023-02-02T05:50:33.579Z,8.83
2023-02-02T05:51:33.557Z,8.81
2023-02-02T05:52:33.551Z,8.81
2023-02-02T05:53:33.543Z,8.88
2023-02-02T05:54:33.543Z,8.83
2023-02-02T05:55:33.530Z,8.86
2023-02-02T05:56:33.512Z,8.78
2023-02-02T05:57:33.511Z,8.78
2023-02-02T05:58:33.497Z,8.85
2023-02-02T05:59:33.490Z,8.93
2023-02-02T06:00:33.489Z,8.78
2023-02-02T06:01:33.470Z,8.77
2023-02-02T06:02:33.492Z,8.85
2023-02-02T06:03:33.558Z,8.85
2023-02-02T06:04:33.440Z,8.80
2023-02-02T06:05:33.434Z,8.85
2023-02-02T06:06:33.431Z,8.85
2023-02-02T06:07:33.427Z,8.81
2023-02-02T06:08:33.414Z,8.88
2023-02-02T06:09:33.408Z,8.81
2023-02-02T06:10:33.397Z,8.78
2023-02-02T06:11:33.381Z,8.81
2023-02-02T06:12:33.375Z,8.85
2023-02-02T06:13:33.370Z,8.85
2023-02-02T06:14:33.377Z,8.81
2023-02-02T06:15:33.410Z,8.81
2023-02-02T06:16:33.339Z,8.89
2023-02-02T06:17:33.334Z,8.81
2023-02-02T06:18:33.331Z,8.80
2023-02-02T06:19:33.315Z,8.86
2023-02-02T06:20:33.310Z,8.81
2023-02-02T06:21:33.300Z,8.81
2023-02-02T06:22:33.289Z,8.78
2023-02-02T06:23:33.292Z,8.90
2023-02-02T06:24:33.274Z,8.78
2023-02-02T06:25:33.262Z,8.98
2023-02-02T06:26:33.409Z,8.80
2023-02-02T06:27:33.247Z,8.90
2023-02-02T06:28:33.242Z,8.89
2023-02-02T06:29:33.233Z,8.78
2023-02-02T06:30:33.220Z,8.85
2023-02-02T06:31:33.290Z,8.85
2023-02-02T06:32:33.195Z,8.90
2023-02-02T06:33:33.191Z,8.81
2023-02-02T06:34:33.196Z,8.81
2023-02-02T06:35:33.190Z,8.92
2023-02-02T06:36:33.159Z,8.99
2023-02-02T06:37:33.157Z,8.99
2023-02-02T06:38:33.152Z,8.93
2023-02-02T06:39:33.140Z,8.95
2023-02-02T06:40:33.149Z,8.98
2023-02-02T06:41:33.132Z,8.96
2023-02-02T06:42:33.117Z,8.95
2023-02-02T06:43:33.124Z,9.03
2023-02-02T06:44:33.106Z,8.96
2023-02-02T06:45:33.092Z,9.04
2023-02-02T06:46:33.179Z,8.96
2023-02-02T06:47:33.079Z,9.03
2023-02-02T06:48:33.058Z,8.98
2023-02-02T06:49:33.052Z,9.01
2023-02-02T06:50:33.041Z,8.96
2023-02-02T06:51:33.035Z,8.99
2023-02-02T06:52:33.037Z,8.99
2023-02-02T06:53:33.058Z,8.99
2023-02-02T06:54:33.011Z,8.93
2023-02-02T06:55:33.004Z,8.98
2023-02-02T06:56:33.002Z,9.01
2023-02-02T06:57:32.989Z,8.98
2023-02-02T06:58:32.981Z,8.98
2023-02-02T06:59:32.970Z,9.01
2023-02-02T07:00:32.958Z,8.99
2023-02-02T07:01:32.979Z,9.01
2023-02-02T07:02:32.996Z,8.96
2023-02-02T07:03:32.953Z,8.96
2023-02-02T07:04:32.918Z,8.99
2023-02-02T07:05:32.924Z,8.95
2023-02-02T07:06:32.910Z,8.95
2023-02-02T07:07:32.892Z,8.96
2023-02-02T07:08:32.892Z,8.98
2023-02-02T07:09:32.885Z,9.04
2023-02-02T07:11:10.991Z,8.99
2023-02-02T07:11:34.698Z,8.90
2023-02-02T07:12:32.851Z,8.99
2023-02-02T07:13:32.853Z,9.06
2023-02-02T07:14:32.837Z,9.04
2023-02-02T07:15:32.828Z,9.06
2023-02-02T07:16:32.848Z,8.98
2023-02-02T07:17:32.812Z,8.99
2023-02-02T07:18:32.803Z,8.99
2023-02-02T07:19:32.799Z,9.01
2023-02-02T07:20:32.778Z,9.06
2023-02-02T07:21:32.775Z,8.99
2023-02-02T07:22:32.773Z,9.01
2023-02-02T07:23:32.767Z,8.99
2023-02-02T07:24:32.749Z,8.99
2023-02-02T07:25:32.749Z,9.03
2023-02-02T07:26:32.843Z,9.08
2023-02-02T07:27:32.733Z,9.06
2023-02-02T07:28:32.715Z,8.98
2023-02-02T07:29:32.706Z,9.04
2023-02-02T07:30:32.732Z,9.06
2023-02-02T07:31:35.897Z,9.04
2023-02-02T07:32:32.679Z,9.01
2023-02-02T07:33:32.683Z,9.11
2023-02-02T07:34:32.661Z,9.12
2023-02-02T07:35:32.653Z,9.12
2023-02-02T07:36:32.658Z,9.09
2023-02-02T07:37:32.631Z,9.08
2023-02-02T07:38:32.634Z,9.08
2023-02-02T07:39:32.654Z,9.14
2023-02-02T07:40:32.615Z,9.11
2023-02-02T07:41:32.603Z,9.09
2023-02-02T07:42:32.598Z,9.12
2023-02-02T07:43:32.597Z,9.04
2023-02-02T07:44:32.580Z,9.04
2023-02-02T07:45:32.581Z,9.16
2023-02-02T07:46:32.609Z,9.18
2023-02-02T07:47:32.559Z,9.14
2023-02-02T07:48:32.544Z,9.04
2023-02-02T07:49:32.530Z,9.15
2023-02-02T07:50:32.536Z,9.08
2023-02-02T07:51:32.524Z,9.08
2023-02-02T07:52:32.508Z,9.09
2023-02-02T07:53:32.495Z,9.11
2023-02-02T07:54:32.488Z,9.08
2023-02-02T07:55:32.654Z,9.14
2023-02-02T07:56:32.472Z,9.01
2023-02-02T07:57:32.469Z,9.14
2023-02-02T07:58:32.458Z,9.12
2023-02-02T07:59:32.670Z,9.14
2023-02-02T08:00:32.473Z,9.09
2023-02-02T08:01:32.494Z,9.14
2023-02-02T08:02:32.443Z,9.22
2023-02-02T08:03:32.412Z,9.15
2023-02-02T08:04:32.427Z,9.11
2023-02-02T08:05:32.415Z,9.12
2023-02-02T08:06:32.402Z,9.06
2023-02-02T08:07:32.397Z,9.11
2023-02-02T08:08:32.386Z,9.11
2023-02-02T08:09:32.366Z,9.14
2023-02-02T08:10:32.362Z,9.15
2023-02-02T08:11:32.357Z,9.12
2023-02-02T08:12:32.337Z,9.14
2023-02-02T08:13:32.326Z,9.16
2023-02-02T08:14:32.334Z,9.14
2023-02-02T08:15:32.308Z,9.14
2023-02-02T08:16:32.352Z,9.15
2023-02-02T08:17:32.298Z,9.19
2023-02-02T08:18:32.280Z,9.23
2023-02-02T08:19:32.279Z,9.22
2023-02-02T08:20:32.266Z,9.16
2023-02-02T08:21:32.252Z,9.16
2023-02-02T08:22:32.266Z,9.19
2023-02-02T08:23:32.241Z,9.14
2023-02-02T08:24:32.246Z,9.19
2023-02-02T08:25:32.256Z,9.19
2023-02-02T08:26:32.353Z,9.14
2023-02-02T08:27:32.207Z,9.16
2023-02-02T08:28:32.206Z,9.22
2023-02-02T08:29:32.196Z,9.22
2023-02-02T08:30:32.205Z,9.09
2023-02-02T08:31:32.236Z,9.15
2023-02-02T08:32:32.169Z,9.22
2023-02-02T08:33:32.156Z,9.19
2023-02-02T08:34:32.145Z,9.12
2023-02-02T08:35:32.138Z,9.12
2023-02-02T08:36:32.150Z,9.16
2023-02-02T08:37:32.123Z,9.11
2023-02-02T08:38:32.117Z,9.14
2023-02-02T08:39:32.114Z,9.16
2023-02-02T08:40:32.116Z,9.16
2023-02-02T08:41:32.115Z,9.15
2023-02-02T08:42:32.092Z,9.19
2023-02-02T08:43:32.066Z,9.09
2023-02-02T08:45:00.314Z,9.11
2023-02-02T08:46:01.492Z,9.23
2023-02-02T08:46:32.079Z,9.19
2023-02-02T08:47:32.039Z,9.09
2023-02-02T08:48:32.037Z,9.19
2023-02-02T08:49:32.023Z,9.23
2023-02-02T08:50:32.021Z,9.11
2023-02-02T08:51:32.002Z,9.14
2023-02-02T08:52:31.989Z,9.23
2023-02-02T08:53:31.982Z,9.15
2023-02-02T08:54:31.978Z,9.16
2023-02-02T08:55:31.973Z,9.16
2023-02-02T08:56:31.959Z,9.09
2023-02-02T08:57:31.957Z,9.18
2023-02-02T08:58:31.945Z,9.18
2023-02-02T08:59:31.939Z,9.18
2023-02-02T09:00:31.916Z,9.12
2023-02-02T09:01:31.917Z,9.09
2023-02-02T09:02:32.011Z,9.14
2023-02-02T09:03:31.934Z,9.23
2023-02-02T09:04:31.891Z,9.15
2023-02-02T09:05:31.888Z,9.06
2023-02-02T09:06:31.872Z,9.08
2023-02-02T09:07:31.877Z,9.12
2023-02-02T09:08:31.900Z,9.03
2023-02-02T09:09:31.852Z,9.19
2023-02-02T09:10:31.848Z,9.14
2023-02-02T09:11:31.848Z,9.14
2023-02-02T09:12:31.815Z,9.04
2023-02-02T09:13:31.819Z,9.11
2023-02-02T09:14:31.817Z,9.16
2023-02-02T09:15:31.803Z,9.11
2023-02-02T09:16:31.894Z,9.09
2023-02-02T09:17:31.780Z,9.04
2023-02-02T09:18:31.778Z,9.08
2023-02-02T09:19:31.754Z,9.12
2023-02-02T09:20:31.764Z,9.06
2023-02-02T09:21:31.746Z,9.04
2023-02-02T09:22:31.738Z,9.06
2023-02-02T09:23:31.725Z,9.03
2023-02-02T09:24:31.729Z,9.03
2023-02-02T09:25:31.708Z,8.98
2023-02-02T09:26:31.744Z,9.14
2023-02-02T09:27:31.691Z,9.04
2023-02-02T09:28:31.684Z,9.15
2023-02-02T09:29:31.697Z,9.09
2023-02-02T09:30:31.670Z,9.03
2023-02-02T09:31:31.681Z,9.01
2023-02-02T09:32:31.648Z,9.06
2023-02-02T09:33:31.640Z,9.01
2023-02-02T09:34:31.669Z,9.11
2023-02-02T09:35:31.629Z,9.11
2023-02-02T09:36:31.617Z,9.11
2023-02-02T09:37:31.599Z,9.08
2023-02-02T09:38:31.616Z,9.04
2023-02-02T09:39:31.591Z,9.11
2023-02-02T09:40:31.580Z,9.12
2023-02-02T09:41:31.571Z,9.15
2023-02-02T09:42:31.571Z,9.15
2023-02-02T09:43:31.561Z,9.18
2023-02-02T09:44:31.566Z,9.11
2023-02-02T09:45:31.550Z,9.14
2023-02-02T09:46:31.528Z,9.15
2023-02-02T09:47:31.517Z,9.19
2023-02-02T09:48:31.514Z,9.22
2023-02-02T09:49:31.502Z,9.29
2023-02-02T09:50:31.507Z,9.27
2023-02-02T09:51:31.491Z,9.24
2023-02-02T09:52:31.482Z,9.26
2023-02-02T09:53:31.477Z,9.29
2023-02-02T09:54:31.462Z,9.23
2023-02-02T09:55:31.451Z,9.27
2023-02-02T09:56:31.442Z,9.29
2023-02-02T09:57:31.433Z,9.32
2023-02-02T09:58:31.434Z,9.36
2023-02-02T09:59:31.421Z,9.40
2023-02-02T10:00:31.418Z,9.37
2023-02-02T10:01:31.473Z,9.40
2023-02-02T10:02:31.386Z,9.36
2023-02-02T10:03:31.410Z,9.37
2023-02-02T10:04:31.382Z,9.48
2023-02-02T10:05:31.368Z,9.47
2023-02-02T10:06:31.395Z,9.47
2023-02-02T10:07:31.351Z,9.44
2023-02-02T10:08:35.132Z,9.48
2023-02-02T10:09:31.340Z,9.51
2023-02-02T10:10:31.327Z,9.51
2023-02-02T10:11:31.319Z,9.54
2023-02-02T10:12:31.316Z,9.51
2023-02-02T10:13:31.294Z,9.54
2023-02-02T10:14:31.320Z,9.54
2023-02-02T10:15:31.290Z,9.55
2023-02-02T10:16:31.268Z,9.62
2023-02-02T10:17:31.282Z,9.62
2023-02-02T10:18:31.256Z,9.55
2023-02-02T10:19:31.251Z,9.67
2023-02-02T10:20:31.254Z,9.62
2023-02-02T10:21:31.244Z,9.63
2023-02-02T10:22:31.228Z,9.60
2023-02-02T10:23:31.226Z,9.63
2023-02-02T10:24:31.240Z,9.59
2023-02-02T10:25:31.204Z,9.57
2023-02-02T10:26:31.255Z,9.57
2023-02-02T10:27:31.184Z,9.59
2023-02-02T10:28:31.172Z,9.59
2023-02-02T10:29:43.273Z,9.59
2023-02-02T10:30:31.166Z,9.60
2023-02-02T10:31:31.234Z,9.55
2023-02-02T10:32:31.150Z,9.66
2023-02-02T10:33:31.137Z,9.57
2023-02-02T10:34:31.127Z,9.63
2023-02-02T10:35:31.125Z,9.60
2023-02-02T10:36:31.112Z,9.65
2023-02-02T10:37:31.106Z,9.60
2023-02-02T10:38:31.274Z,9.55
2023-02-02T10:39:31.084Z,9.59
2023-02-02T10:40:31.079Z,9.62
2023-02-02T10:41:31.091Z,9.52
2023-02-02T10:42:31.074Z,9.70
2023-02-02T10:43:31.054Z,9.66
2023-02-02T10:44:31.048Z,9.72
2023-02-02T10:45:31.045Z,9.62
2023-02-02T10:46:31.087Z,9.69
2023-02-02T10:47:31.061Z,9.69
2023-02-02T10:48:31.015Z,9.65
2023-02-02T10:49:31.096Z,9.72
2023-02-02T10:50:31.031Z,9.75
2023-02-02T10:51:31.014Z,9.67
2023-02-02T10:52:30.983Z,9.75
2023-02-02T10:53:30.974Z,9.69
2023-02-02T10:54:30.969Z,9.70
2023-02-02T10:55:30.989Z,9.67
2023-02-02T10:56:31.000Z,9.67
2023-02-02T10:57:30.943Z,9.70
2023-02-02T10:58:30.939Z,9.72
2023-02-02T10:59:30.925Z,9.60
2023-02-02T11:00:30.949Z,9.67
2023-02-02T11:01:30.984Z,9.67
2023-02-02T11:02:30.949Z,9.70
2023-02-02T11:03:30.893Z,9.67
2023-02-02T11:04:30.898Z,9.75
2023-02-02T11:05:30.881Z,9.77
2023-02-02T11:06:30.875Z,9.70
2023-02-02T11:07:30.903Z,9.70
2023-02-02T11:08:30.857Z,9.73
2023-02-02T11:09:30.853Z,9.70
2023-02-02T11:10:30.879Z,9.70
2023-02-02T11:11:30.829Z,9.73
2023-02-02T11:12:30.820Z,9.75
2023-02-02T11:13:30.820Z,9.80
2023-02-02T11:14:30.820Z,9.72
2023-02-02T11:15:30.815Z,9.69
2023-02-02T11:16:42.267Z,9.88
2023-02-02T11:17:30.782Z,9.72
2023-02-02T11:18:30.762Z,9.72
2023-02-02T11:19:30.776Z,9.77
2023-02-02T11:20:30.754Z,9.88
2023-02-02T11:21:30.746Z,9.81
2023-02-02T11:22:30.735Z,9.78
2023-02-02T11:23:30.778Z,9.80
2023-02-02T11:24:30.717Z,9.83
2023-02-02T11:25:30.732Z,9.85
2023-02-02T11:26:30.721Z,9.81
2023-02-02T11:27:30.693Z,9.73
2023-02-02T11:28:30.687Z,9.83
2023-02-02T11:29:30.677Z,9.87
2023-02-02T11:30:30.670Z,9.80
2023-02-02T11:31:30.768Z,9.84
2023-02-02T11:32:30.677Z,9.83
2023-02-02T11:33:30.649Z,9.85
2023-02-02T11:34:30.636Z,9.83
2023-02-02T11:35:30.630Z,9.85
2023-02-02T11:36:30.620Z,9.81
2023-02-02T11:37:30.608Z,9.85
2023-02-02T11:38:30.633Z,9.83
2023-02-02T11:39:30.607Z,9.80
2023-02-02T11:40:30.586Z,9.83
2023-02-02T11:41:30.579Z,9.84
2023-02-02T11:42:30.572Z,9.85
2023-02-02T11:43:30.568Z,9.85
2023-02-02T11:44:30.564Z,9.83
2023-02-02T11:45:30.547Z,9.88
2023-02-02T11:46:30.624Z,9.94
2023-02-02T11:47:30.536Z,9.85
2023-02-02T11:48:30.527Z,9.84
2023-02-02T11:49:30.521Z,9.87
2023-02-02T11:50:30.506Z,9.91
2023-02-02T11:51:30.687Z,9.94
2023-02-02T11:52:32.480Z,9.96
2023-02-02T11:53:30.500Z,9.84
2023-02-02T11:54:30.501Z,9.88
2023-02-02T11:55:30.463Z,9.99
2023-02-02T11:56:30.459Z,9.87
2023-02-02T11:57:30.453Z,9.85
2023-02-02T11:58:30.441Z,9.87
2023-02-02T11:59:30.443Z,9.87
2023-02-02T12:00:30.433Z,9.87
2023-02-02T12:01:30.425Z,9.87
2023-02-02T12:02:30.419Z,9.87
2023-02-02T12:03:30.418Z,9.96
2023-02-02T12:04:32.512Z,9.94
2023-02-02T12:05:30.389Z,9.90
2023-02-02T12:06:30.384Z,9.98
2023-02-02T12:07:30.374Z,9.96
2023-02-02T12:08:30.360Z,9.98
2023-02-02T12:09:30.361Z,9.98
2023-02-02T12:10:33.497Z,9.94
2023-02-02T12:11:30.338Z,9.93
2023-02-02T12:12:30.328Z,9.98
2023-02-02T12:13:30.336Z,10.01
2023-02-02T12:14:30.312Z,9.90
2023-02-02T12:15:30.335Z,9.99
2023-02-02T12:16:30.336Z,10.01
2023-02-02T12:17:30.294Z,9.93
2023-02-02T12:18:30.283Z,9.98
2023-02-02T12:19:30.270Z,9.98
2023-02-02T12:20:30.274Z,10.02
2023-02-02T12:21:30.280Z,9.99
2023-02-02T12:22:30.243Z,9.96
2023-02-02T12:23:30.241Z,9.93
2023-02-02T12:24:30.248Z,9.98
2023-02-02T12:25:30.240Z,9.98
2023-02-02T12:26:30.269Z,10.01
2023-02-02T12:27:30.213Z,10.06
2023-02-02T12:28:30.211Z,10.03
2023-02-02T12:29:30.196Z,10.14
2023-02-02T12:30:30.205Z,10.06
2023-02-02T12:31:30.222Z,10.09
2023-02-02T12:32:30.163Z,10.10
2023-02-02T12:33:30.179Z,10.08
2023-02-02T12:34:30.161Z,10.08
2023-02-02T12:35:30.145Z,10.21
2023-02-02T12:36:30.153Z,10.17
2023-02-02T12:37:30.131Z,10.14
2023-02-02T12:38:30.126Z,10.14
2023-02-02T12:39:30.117Z,10.14
2023-02-02T12:40:30.140Z,10.10
2023-02-02T12:41:30.101Z,10.14
2023-02-02T12:42:30.089Z,10.17
2023-02-02T12:43:30.082Z,10.17
2023-02-02T12:44:30.073Z,10.27
2023-02-02T12:45:30.120Z,10.26
2023-02-02T12:46:30.061Z,10.23
2023-02-02T12:47:30.053Z,10.23
2023-02-02T12:48:30.043Z,10.27
2023-02-02T12:49:30.052Z,10.24
2023-02-02T12:50:30.049Z,10.21
2023-02-02T12:51:30.020Z,10.26
2023-02-02T12:52:30.027Z,10.23
2023-02-02T12:53:30.005Z,10.24
2023-02-02T12:54:32.813Z,10.26
2023-02-02T12:55:29.984Z,10.27
2023-02-02T12:56:29.976Z,10.23
2023-02-02T12:57:29.993Z,10.27
2023-02-02T12:58:29.967Z,10.31
2023-02-02T12:59:29.959Z,10.31
2023-02-02T13:00:29.945Z,10.18
2023-02-02T13:01:30.080Z,10.35
2023-02-02T13:02:30.031Z,10.28
2023-02-02T13:03:29.940Z,10.42
2023-02-02T13:04:29.920Z,10.31
2023-02-02T13:05:29.909Z,10.39
2023-02-02T13:06:29.912Z,10.35
2023-02-02T13:07:29.902Z,10.38
2023-02-02T13:08:29.886Z,10.39
2023-02-02T13:09:29.883Z,10.36
2023-02-02T13:10:29.873Z,10.39
2023-02-02T13:11:29.943Z,10.41
2023-02-02T13:12:29.875Z,10.39
2023-02-02T13:13:29.854Z,10.42
2023-02-02T13:14:29.863Z,10.39
2023-02-02T13:15:29.828Z,10.38
2023-02-02T13:16:29.869Z,10.41